sensor_id;sensor_type;location;lat;lon;timestamp;temperature;humidity
8914;DHT22;4492;48.736;9.092;2022-08-03T00:01:55;16.70;99.90
8914;DHT22;4492;48.736;9.092;2022-08-03T00:04:21;16.60;99.90
8914;DHT22;4492;48.736;9.092;2022-08-03T00:06:46;16.60;99.90
8914;DHT22;4492;48.736;9.092;2022-08-03T00:09:12;16.60;99.90
8914;DHT22;4492;48.736;9.092;2022-08-03T00:11:37;16.60;99.90
8914;DHT22;4492;48.736;9.092;2022-08-03T00:14:04;16.60;99.90
8914;DHT22;4492;48.736;9.092;2022-08-03T00:16:30;16.60;99.90
8914;DHT22;4492;48.736;9.092;2022-08-03T00:18:56;16.50;99.90
8914;DHT22;4492;48.736;9.092;2022-08-03T00:21:22;16.50;99.90
8914;DHT22;4492;48.736;9.092;2022-08-03T00:23:47;16.50;99.90
8914;DHT22;4492;48.736;9.092;2022-08-03T00:26:13;16.50;99.90
8914;DHT22;4492;48.736;9.092;2022-08-03T00:28:39;16.50;99.90
8914;DHT22;4492;48.736;9.092;2022-08-03T00:31:05;16.50;99.90
8914;DHT22;4492;48.736;9.092;2022-08-03T00:33:31;16.50;99.90
8914;DHT22;4492;48.736;9.092;2022-08-03T00:35:57;16.50;99.90
8914;DHT22;4492;48.736;9.092;2022-08-03T00:38:22;16.40;99.90
8914;DHT22;4492;48.736;9.092;2022-08-03T00:40:48;16.50;99.90
8914;DHT22;4492;48.736;9.092;2022-08-03T00:43:13;16.50;99.90
8914;DHT22;4492;48.736;9.092;2022-08-03T00:45:42;16.60;99.90
8914;DHT22;4492;48.736;9.092;2022-08-03T00:48:10;16.60;99.90
8914;DHT22;4492;48.736;9.092;2022-08-03T00:50:38;16.60;99.90
8914;DHT22;4492;48.736;9.092;2022-08-03T00:53:05;16.60;99.90
8914;DHT22;4492;48.736;9.092;2022-08-03T00:55:32;16.60;99.90
8914;DHT22;4492;48.736;9.092;2022-08-03T00:57:58;16.60;99.90
8914;DHT22;4492;48.736;9.092;2022-08-03T01:00:26;16.50;99.90
8914;DHT22;4492;48.736;9.092;2022-08-03T01:02:53;16.60;99.90
8914;DHT22;4492;48.736;9.092;2022-08-03T01:05:19;16.50;99.90
8914;DHT22;4492;48.736;9.092;2022-08-03T01:14:20;16.50;99.90
8914;DHT22;4492;48.736;9.092;2022-08-03T01:16:29;16.40;99.90
8914;DHT22;4492;48.736;9.092;2022-08-03T01:22:03;16.30;99.90
8914;DHT22;4492;48.736;9.092;2022-08-03T01:24:55;16.30;99.90
8914;DHT22;4492;48.736;9.092;2022-08-03T01:27:48;16.30;99.90
8914;DHT22;4492;48.736;9.092;2022-08-03T01:30:15;16.20;99.90
8914;DHT22;4492;48.736;9.092;2022-08-03T01:32:51;16.20;99.90
8914;DHT22;4492;48.736;9.092;2022-08-03T01:35:44;16.20;99.90
8914;DHT22;4492;48.736;9.092;2022-08-03T01:38:23;16.10;99.90
8914;DHT22;4492;48.736;9.092;2022-08-03T01:40:52;16.10;99.90
8914;DHT22;4492;48.736;9.092;2022-08-03T01:43:22;16.00;99.90
8914;DHT22;4492;48.736;9.092;2022-08-03T01:45:49;16.00;99.90
8914;DHT22;4492;48.736;9.092;2022-08-03T01:48:16;16.00;99.90
8914;DHT22;4492;48.736;9.092;2022-08-03T01:50:44;16.00;99.90
8914;DHT22;4492;48.736;9.092;2022-08-03T01:53:14;16.00;99.90
8914;DHT22;4492;48.736;9.092;2022-08-03T01:55:42;16.00;99.90
8914;DHT22;4492;48.736;9.092;2022-08-03T01:58:09;16.00;99.90
8914;DHT22;4492;48.736;9.092;2022-08-03T02:00:36;16.00;99.90
8914;DHT22;4492;48.736;9.092;2022-08-03T02:03:05;16.00;99.90
8914;DHT22;4492;48.736;9.092;2022-08-03T02:05:32;15.90;99.90
8914;DHT22;4492;48.736;9.092;2022-08-03T02:08:00;15.90;99.90
8914;DHT22;4492;48.736;9.092;2022-08-03T02:10:27;15.90;99.90
8914;DHT22;4492;48.736;9.092;2022-08-03T02:12:53;15.90;99.90
8914;DHT22;4492;48.736;9.092;2022-08-03T02:15:20;15.90;99.90
8914;DHT22;4492;48.736;9.092;2022-08-03T02:17:47;15.90;99.90
8914;DHT22;4492;48.736;9.092;2022-08-03T02:20:15;15.90;99.90
8914;DHT22;4492;48.736;9.092;2022-08-03T02:22:42;15.80;99.90
8914;DHT22;4492;48.736;9.092;2022-08-03T02:25:10;15.80;99.90
8914;DHT22;4492;48.736;9.092;2022-08-03T02:27:38;15.80;99.90
8914;DHT22;4492;48.736;9.092;2022-08-03T02:30:07;15.70;99.90
8914;DHT22;4492;48.736;9.092;2022-08-03T02:32:37;15.70;99.90
8914;DHT22;4492;48.736;9.092;2022-08-03T02:35:08;15.70;99.90
8914;DHT22;4492;48.736;9.092;2022-08-03T02:37:45;15.70;99.90
8914;DHT22;4492;48.736;9.092;2022-08-03T02:40:12;15.70;99.90
8914;DHT22;4492;48.736;9.092;2022-08-03T02:42:40;15.70;99.90
8914;DHT22;4492;48.736;9.092;2022-08-03T02:45:09;15.70;99.90
8914;DHT22;4492;48.736;9.092;2022-08-03T02:47:40;15.60;99.90
8914;DHT22;4492;48.736;9.092;2022-08-03T02:50:10;15.60;99.90
8914;DHT22;4492;48.736;9.092;2022-08-03T02:52:37;15.60;99.90
8914;DHT22;4492;48.736;9.092;2022-08-03T02:55:04;15.60;99.90
8914;DHT22;4492;48.736;9.092;2022-08-03T02:57:32;15.60;99.90
8914;DHT22;4492;48.736;9.092;2022-08-03T03:00:00;15.60;99.90
8914;DHT22;4492;48.736;9.092;2022-08-03T03:02:27;15.60;99.90
8914;DHT22;4492;48.736;9.092;2022-08-03T03:04:54;15.60;99.90
8914;DHT22;4492;48.736;9.092;2022-08-03T03:07:20;15.60;99.90
8914;DHT22;4492;48.736;9.092;2022-08-03T03:09:46;15.70;99.90
8914;DHT22;4492;48.736;9.092;2022-08-03T03:12:12;15.70;99.90
8914;DHT22;4492;48.736;9.092;2022-08-03T03:14:39;15.60;99.90
8914;DHT22;4492;48.736;9.092;2022-08-03T03:17:09;15.60;99.90
8914;DHT22;4492;48.736;9.092;2022-08-03T03:19:37;15.60;99.90
8914;DHT22;4492;48.736;9.092;2022-08-03T03:22:04;15.50;99.90
8914;DHT22;4492;48.736;9.092;2022-08-03T03:24:32;15.50;99.90
8914;DHT22;4492;48.736;9.092;2022-08-03T03:26:59;15.50;99.90
8914;DHT22;4492;48.736;9.092;2022-08-03T03:29:25;15.50;99.90
8914;DHT22;4492;48.736;9.092;2022-08-03T03:31:51;15.50;99.90
8914;DHT22;4492;48.736;9.092;2022-08-03T03:34:17;15.50;99.90
8914;DHT22;4492;48.736;9.092;2022-08-03T03:36:43;15.50;99.90
8914;DHT22;4492;48.736;9.092;2022-08-03T03:39:09;15.40;99.90
8914;DHT22;4492;48.736;9.092;2022-08-03T03:41:35;15.50;99.90
8914;DHT22;4492;48.736;9.092;2022-08-03T03:44:01;15.50;99.90
8914;DHT22;4492;48.736;9.092;2022-08-03T03:46:26;15.40;99.90
8914;DHT22;4492;48.736;9.092;2022-08-03T03:48:52;15.40;99.90
8914;DHT22;4492;48.736;9.092;2022-08-03T03:51:18;15.40;99.90
8914;DHT22;4492;48.736;9.092;2022-08-03T03:54:00;15.40;99.90
8914;DHT22;4492;48.736;9.092;2022-08-03T03:56:26;15.40;99.90
8914;DHT22;4492;48.736;9.092;2022-08-03T03:58:53;15.40;99.90
8914;DHT22;4492;48.736;9.092;2022-08-03T04:01:19;15.30;99.90
8914;DHT22;4492;48.736;9.092;2022-08-03T04:03:45;15.30;99.90
8914;DHT22;4492;48.736;9.092;2022-08-03T04:06:12;15.30;99.90
8914;DHT22;4492;48.736;9.092;2022-08-03T04:08:56;15.30;99.90
8914;DHT22;4492;48.736;9.092;2022-08-03T04:11:53;15.30;99.90
8914;DHT22;4492;48.736;9.092;2022-08-03T04:14:28;15.30;99.90
8914;DHT22;4492;48.736;9.092;2022-08-03T04:17:00;15.40;99.90
8914;DHT22;4492;48.736;9.092;2022-08-03T04:19:30;15.40;99.90
8914;DHT22;4492;48.736;9.092;2022-08-03T04:22:01;15.40;99.90
8914;DHT22;4492;48.736;9.092;2022-08-03T04:24:40;15.40;99.90
8914;DHT22;4492;48.736;9.092;2022-08-03T04:27:09;15.40;99.90
8914;DHT22;4492;48.736;9.092;2022-08-03T04:29:37;15.50;99.90
8914;DHT22;4492;48.736;9.092;2022-08-03T04:32:04;15.50;99.90
8914;DHT22;4492;48.736;9.092;2022-08-03T04:34:31;15.50;99.90
8914;DHT22;4492;48.736;9.092;2022-08-03T04:36:59;15.50;99.90
8914;DHT22;4492;48.736;9.092;2022-08-03T04:39:30;15.60;99.90
8914;DHT22;4492;48.736;9.092;2022-08-03T04:41:59;15.60;99.90
8914;DHT22;4492;48.736;9.092;2022-08-03T04:44:26;15.70;99.90
8914;DHT22;4492;48.736;9.092;2022-08-03T04:46:53;15.70;99.90
8914;DHT22;4492;48.736;9.092;2022-08-03T04:49:20;15.80;99.90
8914;DHT22;4492;48.736;9.092;2022-08-03T04:51:47;16.00;99.90
8914;DHT22;4492;48.736;9.092;2022-08-03T04:54:14;16.20;99.90
8914;DHT22;4492;48.736;9.092;2022-08-03T04:56:41;16.30;99.90
8914;DHT22;4492;48.736;9.092;2022-08-03T04:59:07;16.40;99.90
8914;DHT22;4492;48.736;9.092;2022-08-03T05:01:33;16.40;99.90
8914;DHT22;4492;48.736;9.092;2022-08-03T05:03:59;16.50;99.90
8914;DHT22;4492;48.736;9.092;2022-08-03T05:06:24;16.50;99.90
8914;DHT22;4492;48.736;9.092;2022-08-03T05:08:50;16.60;99.90
8914;DHT22;4492;48.736;9.092;2022-08-03T05:11:16;16.70;99.90
8914;DHT22;4492;48.736;9.092;2022-08-03T05:13:45;16.80;99.90
8914;DHT22;4492;48.736;9.092;2022-08-03T05:16:12;16.90;99.90
8914;DHT22;4492;48.736;9.092;2022-08-03T05:18:38;17.00;99.90
8914;DHT22;4492;48.736;9.092;2022-08-03T05:21:04;17.10;99.90
8914;DHT22;4492;48.736;9.092;2022-08-03T05:23:30;17.20;99.90
8914;DHT22;4492;48.736;9.092;2022-08-03T05:25:56;17.30;99.90
8914;DHT22;4492;48.736;9.092;2022-08-03T05:28:21;17.50;99.90
8914;DHT22;4492;48.736;9.092;2022-08-03T05:30:47;17.60;99.90
8914;DHT22;4492;48.736;9.092;2022-08-03T05:33:13;17.70;99.90
8914;DHT22;4492;48.736;9.092;2022-08-03T05:35:39;17.80;99.90
8914;DHT22;4492;48.736;9.092;2022-08-03T05:38:05;18.00;99.90
8914;DHT22;4492;48.736;9.092;2022-08-03T05:40:31;18.10;99.90
8914;DHT22;4492;48.736;9.092;2022-08-03T05:42:57;18.30;99.90
8914;DHT22;4492;48.736;9.092;2022-08-03T05:45:24;18.40;99.90
8914;DHT22;4492;48.736;9.092;2022-08-03T05:47:49;18.50;99.90
8914;DHT22;4492;48.736;9.092;2022-08-03T05:50:17;18.70;99.90
8914;DHT22;4492;48.736;9.092;2022-08-03T05:52:42;18.90;99.90
8914;DHT22;4492;48.736;9.092;2022-08-03T05:55:09;19.00;99.90
8914;DHT22;4492;48.736;9.092;2022-08-03T05:57:35;19.20;99.90
8914;DHT22;4492;48.736;9.092;2022-08-03T06:00:03;19.40;99.90
8914;DHT22;4492;48.736;9.092;2022-08-03T06:02:29;19.50;99.90
8914;DHT22;4492;48.736;9.092;2022-08-03T06:04:55;19.70;99.90
8914;DHT22;4492;48.736;9.092;2022-08-03T06:07:21;19.90;99.90
8914;DHT22;4492;48.736;9.092;2022-08-03T06:09:46;20.00;99.90
8914;DHT22;4492;48.736;9.092;2022-08-03T06:12:12;20.20;99.90
8914;DHT22;4492;48.736;9.092;2022-08-03T06:14:37;20.40;99.90
8914;DHT22;4492;48.736;9.092;2022-08-03T06:17:03;20.60;99.90
8914;DHT22;4492;48.736;9.092;2022-08-03T06:19:28;20.70;99.90
8914;DHT22;4492;48.736;9.092;2022-08-03T06:21:54;20.90;99.90
8914;DHT22;4492;48.736;9.092;2022-08-03T06:24:19;21.10;99.90
8914;DHT22;4492;48.736;9.092;2022-08-03T06:26:45;21.30;99.90
8914;DHT22;4492;48.736;9.092;2022-08-03T06:29:10;21.50;99.90
8914;DHT22;4492;48.736;9.092;2022-08-03T06:31:36;21.60;99.90
8914;DHT22;4492;48.736;9.092;2022-08-03T06:34:03;21.90;99.90
8914;DHT22;4492;48.736;9.092;2022-08-03T06:36:29;22.00;99.90
8914;DHT22;4492;48.736;9.092;2022-08-03T06:38:59;22.30;99.90
8914;DHT22;4492;48.736;9.092;2022-08-03T06:41:26;22.40;99.90
8914;DHT22;4492;48.736;9.092;2022-08-03T06:43:52;22.60;99.90
8914;DHT22;4492;48.736;9.092;2022-08-03T06:46:17;22.70;99.40
8914;DHT22;4492;48.736;9.092;2022-08-03T06:48:43;22.90;98.70
8914;DHT22;4492;48.736;9.092;2022-08-03T06:51:09;23.10;98.50
8914;DHT22;4492;48.736;9.092;2022-08-03T06:53:35;23.20;97.80
8914;DHT22;4492;48.736;9.092;2022-08-03T06:56:00;23.30;97.50
8914;DHT22;4492;48.736;9.092;2022-08-03T06:58:26;23.50;97.30
8914;DHT22;4492;48.736;9.092;2022-08-03T07:00:52;23.60;97.20
8914;DHT22;4492;48.736;9.092;2022-08-03T07:03:17;23.70;96.70
8914;DHT22;4492;48.736;9.092;2022-08-03T07:05:43;23.80;96.30
8914;DHT22;4492;48.736;9.092;2022-08-03T07:08:11;24.00;96.10
8914;DHT22;4492;48.736;9.092;2022-08-03T07:10:37;24.10;95.90
8914;DHT22;4492;48.736;9.092;2022-08-03T07:13:04;24.20;95.50
8914;DHT22;4492;48.736;9.092;2022-08-03T07:15:29;24.40;95.20
8914;DHT22;4492;48.736;9.092;2022-08-03T07:17:55;24.50;94.50
8914;DHT22;4492;48.736;9.092;2022-08-03T07:20:20;24.60;94.50
8914;DHT22;4492;48.736;9.092;2022-08-03T07:22:46;24.70;94.10
8914;DHT22;4492;48.736;9.092;2022-08-03T07:25:12;24.80;94.00
8914;DHT22;4492;48.736;9.092;2022-08-03T07:27:37;25.00;93.70
8914;DHT22;4492;48.736;9.092;2022-08-03T07:30:05;25.10;93.60
8914;DHT22;4492;48.736;9.092;2022-08-03T07:32:32;25.20;93.10
8914;DHT22;4492;48.736;9.092;2022-08-03T07:34:57;25.40;92.50
8914;DHT22;4492;48.736;9.092;2022-08-03T07:37:23;25.40;92.00
8914;DHT22;4492;48.736;9.092;2022-08-03T07:39:48;25.60;92.00
8914;DHT22;4492;48.736;9.092;2022-08-03T07:42:14;25.60;91.00
8914;DHT22;4492;48.736;9.092;2022-08-03T07:44:39;25.70;90.90
8914;DHT22;4492;48.736;9.092;2022-08-03T07:47:05;25.70;91.10
8914;DHT22;4492;48.736;9.092;2022-08-03T07:49:31;25.80;90.30
8914;DHT22;4492;48.736;9.092;2022-08-03T07:51:56;25.80;90.80
8914;DHT22;4492;48.736;9.092;2022-08-03T07:54:40;25.80;90.30
8914;DHT22;4492;48.736;9.092;2022-08-03T07:57:06;25.90;90.30
8914;DHT22;4492;48.736;9.092;2022-08-03T07:59:31;25.80;90.60
8914;DHT22;4492;48.736;9.092;2022-08-03T08:01:59;25.90;90.20
8914;DHT22;4492;48.736;9.092;2022-08-03T08:04:25;26.00;90.00
8914;DHT22;4492;48.736;9.092;2022-08-03T08:06:50;26.20;89.70
8914;DHT22;4492;48.736;9.092;2022-08-03T08:09:16;26.30;89.10
8914;DHT22;4492;48.736;9.092;2022-08-03T08:11:41;26.50;88.40
8914;DHT22;4492;48.736;9.092;2022-08-03T08:14:07;26.60;87.70
8914;DHT22;4492;48.736;9.092;2022-08-03T08:16:33;26.70;85.50
8914;DHT22;4492;48.736;9.092;2022-08-03T08:18:59;26.70;85.40
8914;DHT22;4492;48.736;9.092;2022-08-03T08:21:26;26.80;86.00
8914;DHT22;4492;48.736;9.092;2022-08-03T08:23:51;26.80;84.20
8914;DHT22;4492;48.736;9.092;2022-08-03T08:26:17;26.80;83.80
8914;DHT22;4492;48.736;9.092;2022-08-03T08:28:42;26.80;82.30
8914;DHT22;4492;48.736;9.092;2022-08-03T08:31:08;26.90;83.50
8914;DHT22;4492;48.736;9.092;2022-08-03T08:33:34;27.00;81.90
8914;DHT22;4492;48.736;9.092;2022-08-03T08:36:00;27.10;79.40
8914;DHT22;4492;48.736;9.092;2022-08-03T08:38:25;27.10;81.20
8914;DHT22;4492;48.736;9.092;2022-08-03T08:40:54;27.20;78.00
8914;DHT22;4492;48.736;9.092;2022-08-03T08:43:20;27.30;78.30
8914;DHT22;4492;48.736;9.092;2022-08-03T08:45:48;27.30;78.30
8914;DHT22;4492;48.736;9.092;2022-08-03T08:48:18;27.40;79.80
8914;DHT22;4492;48.736;9.092;2022-08-03T08:50:47;27.50;79.60
8914;DHT22;4492;48.736;9.092;2022-08-03T08:53:13;27.70;79.50
8914;DHT22;4492;48.736;9.092;2022-08-03T08:55:39;27.80;77.50
8914;DHT22;4492;48.736;9.092;2022-08-03T08:58:05;27.90;76.90
8914;DHT22;4492;48.736;9.092;2022-08-03T09:00:31;27.90;75.30
8914;DHT22;4492;48.736;9.092;2022-08-03T09:02:56;28.00;75.40
8914;DHT22;4492;48.736;9.092;2022-08-03T09:05:22;28.10;72.50
8914;DHT22;4492;48.736;9.092;2022-08-03T09:07:48;27.90;72.40
8914;DHT22;4492;48.736;9.092;2022-08-03T09:10:16;28.00;72.90
8914;DHT22;4492;48.736;9.092;2022-08-03T09:12:48;28.00;73.20
8914;DHT22;4492;48.736;9.092;2022-08-03T09:15:24;28.10;73.80
8914;DHT22;4492;48.736;9.092;2022-08-03T09:17:55;28.20;71.40
8914;DHT22;4492;48.736;9.092;2022-08-03T09:20:22;28.40;71.80
8914;DHT22;4492;48.736;9.092;2022-08-03T09:22:51;28.40;69.80
8914;DHT22;4492;48.736;9.092;2022-08-03T09:25:19;28.60;68.10
8914;DHT22;4492;48.736;9.092;2022-08-03T09:27:45;28.70;68.60
8914;DHT22;4492;48.736;9.092;2022-08-03T09:30:16;28.80;70.50
8914;DHT22;4492;48.736;9.092;2022-08-03T09:32:42;28.90;70.30
8914;DHT22;4492;48.736;9.092;2022-08-03T09:35:11;28.80;70.20
8914;DHT22;4492;48.736;9.092;2022-08-03T09:37:36;28.80;69.10
8914;DHT22;4492;48.736;9.092;2022-08-03T09:40:03;28.80;70.50
8914;DHT22;4492;48.736;9.092;2022-08-03T09:42:29;28.80;69.30
8914;DHT22;4492;48.736;9.092;2022-08-03T09:44:55;28.90;69.30
8914;DHT22;4492;48.736;9.092;2022-08-03T09:47:30;29.00;68.50
8914;DHT22;4492;48.736;9.092;2022-08-03T09:50:07;29.10;68.80
8914;DHT22;4492;48.736;9.092;2022-08-03T09:52:39;29.20;69.00
8914;DHT22;4492;48.736;9.092;2022-08-03T09:55:10;29.10;67.40
8914;DHT22;4492;48.736;9.092;2022-08-03T09:57:36;29.10;69.20
8914;DHT22;4492;48.736;9.092;2022-08-03T10:00:13;29.20;69.40
8914;DHT22;4492;48.736;9.092;2022-08-03T10:02:40;29.40;67.90
8914;DHT22;4492;48.736;9.092;2022-08-03T10:05:08;29.40;65.90
8914;DHT22;4492;48.736;9.092;2022-08-03T10:07:43;29.40;65.70
8914;DHT22;4492;48.736;9.092;2022-08-03T10:10:09;29.40;66.10
8914;DHT22;4492;48.736;9.092;2022-08-03T10:12:36;29.50;65.00
8914;DHT22;4492;48.736;9.092;2022-08-03T10:15:01;29.50;65.60
8914;DHT22;4492;48.736;9.092;2022-08-03T10:17:27;29.30;65.60
8914;DHT22;4492;48.736;9.092;2022-08-03T10:19:52;29.30;66.10
8914;DHT22;4492;48.736;9.092;2022-08-03T10:22:21;29.40;66.10
8914;DHT22;4492;48.736;9.092;2022-08-03T10:25:01;29.50;65.50
8914;DHT22;4492;48.736;9.092;2022-08-03T10:27:32;29.70;65.10
8914;DHT22;4492;48.736;9.092;2022-08-03T10:30:01;29.70;65.00
8914;DHT22;4492;48.736;9.092;2022-08-03T10:32:48;29.90;64.90
8914;DHT22;4492;48.736;9.092;2022-08-03T10:35:19;29.90;63.30
8914;DHT22;4492;48.736;9.092;2022-08-03T10:37:54;29.80;63.00
8914;DHT22;4492;48.736;9.092;2022-08-03T10:40:21;29.70;64.50
8914;DHT22;4492;48.736;9.092;2022-08-03T10:42:50;29.70;63.40
8914;DHT22;4492;48.736;9.092;2022-08-03T10:45:23;29.70;63.60
8914;DHT22;4492;48.736;9.092;2022-08-03T10:47:50;29.80;63.20
8914;DHT22;4492;48.736;9.092;2022-08-03T10:50:16;29.90;62.30
8914;DHT22;4492;48.736;9.092;2022-08-03T10:53:00;29.90;62.60
8914;DHT22;4492;48.736;9.092;2022-08-03T10:55:35;30.00;62.20
8914;DHT22;4492;48.736;9.092;2022-08-03T11:01:09;30.00;63.30
8914;DHT22;4492;48.736;9.092;2022-08-03T11:06:26;30.00;61.60
8914;DHT22;4492;48.736;9.092;2022-08-03T11:11:44;30.00;63.60
8914;DHT22;4492;48.736;9.092;2022-08-03T11:14:11;29.90;63.10
8914;DHT22;4492;48.736;9.092;2022-08-03T11:16:40;30.00;64.10
8914;DHT22;4492;48.736;9.092;2022-08-03T11:19:11;30.10;63.70
8914;DHT22;4492;48.736;9.092;2022-08-03T11:27:28;30.20;63.10
8914;DHT22;4492;48.736;9.092;2022-08-03T11:30:02;30.30;63.00
8914;DHT22;4492;48.736;9.092;2022-08-03T11:35:33;30.30;62.10
8914;DHT22;4492;48.736;9.092;2022-08-03T11:38:08;30.40;62.10
8914;DHT22;4492;48.736;9.092;2022-08-03T11:40:48;30.60;61.10
8914;DHT22;4492;48.736;9.092;2022-08-03T11:45:57;30.70;60.80
8914;DHT22;4492;48.736;9.092;2022-08-03T11:48:27;30.70;61.60
8914;DHT22;4492;48.736;9.092;2022-08-03T11:50:53;30.80;61.80
8914;DHT22;4492;48.736;9.092;2022-08-03T11:53:19;30.80;61.30
8914;DHT22;4492;48.736;9.092;2022-08-03T11:55:46;31.00;61.50
8914;DHT22;4492;48.736;9.092;2022-08-03T11:58:16;31.00;61.40
8914;DHT22;4492;48.736;9.092;2022-08-03T12:00:42;30.80;60.00
8914;DHT22;4492;48.736;9.092;2022-08-03T12:03:11;30.80;60.50
8914;DHT22;4492;48.736;9.092;2022-08-03T12:05:39;31.00;60.60
8914;DHT22;4492;48.736;9.092;2022-08-03T12:08:06;31.10;60.30
8914;DHT22;4492;48.736;9.092;2022-08-03T12:10:32;31.20;58.50
8914;DHT22;4492;48.736;9.092;2022-08-03T12:12:59;31.30;58.90
8914;DHT22;4492;48.736;9.092;2022-08-03T12:15:29;31.30;58.10
8914;DHT22;4492;48.736;9.092;2022-08-03T12:17:56;31.30;57.60
8914;DHT22;4492;48.736;9.092;2022-08-03T12:20:27;31.30;57.20
8914;DHT22;4492;48.736;9.092;2022-08-03T12:22:53;31.10;56.60
8914;DHT22;4492;48.736;9.092;2022-08-03T12:25:24;31.10;57.20
8914;DHT22;4492;48.736;9.092;2022-08-03T12:28:08;31.20;58.30
8914;DHT22;4492;48.736;9.092;2022-08-03T12:30:35;31.40;59.50
8914;DHT22;4492;48.736;9.092;2022-08-03T12:33:20;31.60;56.80
8914;DHT22;4492;48.736;9.092;2022-08-03T12:35:47;31.70;56.00
8914;DHT22;4492;48.736;9.092;2022-08-03T12:38:18;31.80;56.60
8914;DHT22;4492;48.736;9.092;2022-08-03T12:40:45;32.00;55.00
8914;DHT22;4492;48.736;9.092;2022-08-03T12:43:19;31.90;54.70
8914;DHT22;4492;48.736;9.092;2022-08-03T12:45:44;32.00;53.30
8914;DHT22;4492;48.736;9.092;2022-08-03T12:48:10;32.10;53.70
8914;DHT22;4492;48.736;9.092;2022-08-03T12:50:36;32.00;53.70
8914;DHT22;4492;48.736;9.092;2022-08-03T12:53:05;32.10;54.10
8914;DHT22;4492;48.736;9.092;2022-08-03T12:55:32;32.00;53.70
8914;DHT22;4492;48.736;9.092;2022-08-03T12:58:05;32.00;53.60
8914;DHT22;4492;48.736;9.092;2022-08-03T13:00:32;32.20;53.40
8914;DHT22;4492;48.736;9.092;2022-08-03T13:02:59;31.90;53.20
8914;DHT22;4492;48.736;9.092;2022-08-03T13:05:26;31.50;54.10
8914;DHT22;4492;48.736;9.092;2022-08-03T13:07:51;31.40;54.00
8914;DHT22;4492;48.736;9.092;2022-08-03T13:10:31;31.50;54.20
8914;DHT22;4492;48.736;9.092;2022-08-03T13:12:58;31.70;53.60
8914;DHT22;4492;48.736;9.092;2022-08-03T13:15:25;31.90;53.30
8914;DHT22;4492;48.736;9.092;2022-08-03T13:17:53;32.00;54.90
8914;DHT22;4492;48.736;9.092;2022-08-03T13:20:20;32.00;55.50
8914;DHT22;4492;48.736;9.092;2022-08-03T13:22:46;32.10;55.20
8914;DHT22;4492;48.736;9.092;2022-08-03T13:25:12;32.20;54.80
8914;DHT22;4492;48.736;9.092;2022-08-03T13:27:38;32.10;54.40
8914;DHT22;4492;48.736;9.092;2022-08-03T13:30:05;32.20;54.20
8914;DHT22;4492;48.736;9.092;2022-08-03T13:32:31;32.20;53.70
8914;DHT22;4492;48.736;9.092;2022-08-03T13:34:57;32.30;53.30
8914;DHT22;4492;48.736;9.092;2022-08-03T13:37:23;32.50;53.50
8914;DHT22;4492;48.736;9.092;2022-08-03T13:39:49;32.50;53.30
8914;DHT22;4492;48.736;9.092;2022-08-03T13:42:15;32.40;52.90
8914;DHT22;4492;48.736;9.092;2022-08-03T13:44:40;32.40;52.30
8914;DHT22;4492;48.736;9.092;2022-08-03T13:47:06;32.30;52.80
8914;DHT22;4492;48.736;9.092;2022-08-03T13:49:32;32.30;52.90
8914;DHT22;4492;48.736;9.092;2022-08-03T13:51:58;32.40;52.70
8914;DHT22;4492;48.736;9.092;2022-08-03T13:54:23;32.40;51.80
8914;DHT22;4492;48.736;9.092;2022-08-03T13:56:49;32.40;52.20
8914;DHT22;4492;48.736;9.092;2022-08-03T13:59:19;32.20;52.60
8914;DHT22;4492;48.736;9.092;2022-08-03T14:01:49;32.20;52.50
8914;DHT22;4492;48.736;9.092;2022-08-03T14:04:15;32.30;52.50
8914;DHT22;4492;48.736;9.092;2022-08-03T14:06:40;32.40;53.50
8914;DHT22;4492;48.736;9.092;2022-08-03T14:09:08;32.30;54.20
8914;DHT22;4492;48.736;9.092;2022-08-03T14:11:34;32.40;54.10
8914;DHT22;4492;48.736;9.092;2022-08-03T14:13:59;32.40;53.80
8914;DHT22;4492;48.736;9.092;2022-08-03T14:16:25;32.50;53.70
8914;DHT22;4492;48.736;9.092;2022-08-03T14:18:50;32.60;53.50
8914;DHT22;4492;48.736;9.092;2022-08-03T14:21:16;32.70;53.30
8914;DHT22;4492;48.736;9.092;2022-08-03T14:23:41;32.80;53.30
8914;DHT22;4492;48.736;9.092;2022-08-03T14:26:08;32.90;52.70
8914;DHT22;4492;48.736;9.092;2022-08-03T14:28:34;32.90;53.30
8914;DHT22;4492;48.736;9.092;2022-08-03T14:31:00;32.80;53.50
8914;DHT22;4492;48.736;9.092;2022-08-03T14:33:26;32.90;53.40
8914;DHT22;4492;48.736;9.092;2022-08-03T14:35:53;33.00;52.80
8914;DHT22;4492;48.736;9.092;2022-08-03T14:38:20;32.70;53.40
8914;DHT22;4492;48.736;9.092;2022-08-03T14:40:46;32.70;51.70
8914;DHT22;4492;48.736;9.092;2022-08-03T14:43:13;32.70;51.60
8914;DHT22;4492;48.736;9.092;2022-08-03T14:45:39;32.90;51.60
8914;DHT22;4492;48.736;9.092;2022-08-03T14:48:05;33.00;53.40
8914;DHT22;4492;48.736;9.092;2022-08-03T14:50:30;33.30;51.50
8914;DHT22;4492;48.736;9.092;2022-08-03T14:52:56;33.50;50.90
8914;DHT22;4492;48.736;9.092;2022-08-03T14:55:22;33.40;49.60
8914;DHT22;4492;48.736;9.092;2022-08-03T14:57:48;33.40;50.10
8914;DHT22;4492;48.736;9.092;2022-08-03T15:00:13;33.50;49.50
8914;DHT22;4492;48.736;9.092;2022-08-03T15:02:39;33.40;49.90
8914;DHT22;4492;48.736;9.092;2022-08-03T15:05:05;33.40;50.10
8914;DHT22;4492;48.736;9.092;2022-08-03T15:07:31;33.50;49.50
8914;DHT22;4492;48.736;9.092;2022-08-03T15:09:57;33.50;50.60
8914;DHT22;4492;48.736;9.092;2022-08-03T15:12:24;33.40;50.30
8914;DHT22;4492;48.736;9.092;2022-08-03T15:14:49;33.60;51.20
8914;DHT22;4492;48.736;9.092;2022-08-03T15:17:15;33.70;50.60
8914;DHT22;4492;48.736;9.092;2022-08-03T15:19:40;33.90;50.50
8914;DHT22;4492;48.736;9.092;2022-08-03T15:22:06;33.70;50.80
8914;DHT22;4492;48.736;9.092;2022-08-03T15:24:31;33.70;50.30
8914;DHT22;4492;48.736;9.092;2022-08-03T15:26:57;33.80;50.10
8914;DHT22;4492;48.736;9.092;2022-08-03T15:29:22;33.70;50.70
8914;DHT22;4492;48.736;9.092;2022-08-03T15:31:48;33.80;50.00
8914;DHT22;4492;48.736;9.092;2022-08-03T15:34:13;34.00;50.70
8914;DHT22;4492;48.736;9.092;2022-08-03T15:36:39;34.30;49.30
8914;DHT22;4492;48.736;9.092;2022-08-03T15:39:05;34.50;48.70
8914;DHT22;4492;48.736;9.092;2022-08-03T15:41:30;34.60;49.10
8914;DHT22;4492;48.736;9.092;2022-08-03T15:43:56;34.80;48.70
8914;DHT22;4492;48.736;9.092;2022-08-03T15:46:22;35.30;47.90
8914;DHT22;4492;48.736;9.092;2022-08-03T15:48:47;35.60;47.50
8914;DHT22;4492;48.736;9.092;2022-08-03T15:51:13;36.00;46.90
8914;DHT22;4492;48.736;9.092;2022-08-03T15:53:39;36.40;46.20
8914;DHT22;4492;48.736;9.092;2022-08-03T15:56:05;36.40;45.60
8914;DHT22;4492;48.736;9.092;2022-08-03T15:58:35;36.50;45.90
8914;DHT22;4492;48.736;9.092;2022-08-03T16:01:01;36.60;45.60
8914;DHT22;4492;48.736;9.092;2022-08-03T16:03:27;36.80;45.10
8914;DHT22;4492;48.736;9.092;2022-08-03T16:05:59;36.40;45.50
8914;DHT22;4492;48.736;9.092;2022-08-03T16:08:25;36.70;45.40
8914;DHT22;4492;48.736;9.092;2022-08-03T16:10:50;36.70;44.50
8914;DHT22;4492;48.736;9.092;2022-08-03T16:13:16;36.50;44.80
8914;DHT22;4492;48.736;9.092;2022-08-03T16:15:41;36.60;44.70
8914;DHT22;4492;48.736;9.092;2022-08-03T16:18:07;36.80;44.10
8914;DHT22;4492;48.736;9.092;2022-08-03T16:20:33;36.90;44.50
8914;DHT22;4492;48.736;9.092;2022-08-03T16:22:58;37.10;44.00
8914;DHT22;4492;48.736;9.092;2022-08-03T16:25:24;37.10;43.60
8914;DHT22;4492;48.736;9.092;2022-08-03T16:27:49;37.10;43.10
8914;DHT22;4492;48.736;9.092;2022-08-03T16:30:15;36.70;43.70
8914;DHT22;4492;48.736;9.092;2022-08-03T16:32:42;36.40;44.00
8914;DHT22;4492;48.736;9.092;2022-08-03T16:35:08;36.40;44.50